F/V Barracuda II — FMIF — position and weather

sailwx.info

Track history (hours):
 
Tides and Currents Weather Stations Pressure Air Temp Water Temp Dewpoint Dewpoint Depression Visibility Wind Speed Wind Dir Waves Ship Positions

F/V Barracuda II

Last reported at 2017-Sep-19 13:19 UTC. Time now 2017-Sep-19 22:34 UTC.
Position N 43°21' E 004°20'.

Length 18 m.

Type: Fishing. MMSI: 228236800.

Date/timePositionNaut miles runAvg speedWind from/ knotsBaromVisibWave heightAir tempDewpointWater temp
2017-Sep-19 13:19N 43°21' E 004°20'1 3.7
2017-Sep-19 13:00N 43°21' E 004°21'2 3.7
2017-Sep-19 12:30N 43°20' E 004°24'2 3.7
2017-Sep-19 12:01N 43°19' E 004°26'2 3.7
2017-Sep-19 11:31N 43°18' E 004°28'2 3.7
2017-Sep-19 11:00N 43°17' E 004°30'2 3.7
2017-Sep-19 10:31N 43°16' E 004°32'2 3.8
2017-Sep-19 10:00N 43°14' E 004°34'1 2.7
2017-Sep-19 09:30N 43°13' E 004°35'2 3.7
2017-Sep-19 09:01N 43°12' E 004°37'2 3.6
2017-Sep-19 08:31N 43°12' E 004°39'2 3.5
2017-Sep-19 08:01N 43°13' E 004°41'2 3.7
2017-Sep-19 07:30N 43°15' E 004°42'7 4.3
2017-Sep-19 05:58N 43°19' E 004°34'2 4.2
2017-Sep-19 05:30N 43°20' E 004°32'2 3.9
2017-Sep-19 05:00N 43°20' E 004°29'2 3.9
2017-Sep-19 04:28N 43°21' E 004°26'2 3.9
2017-Sep-19 04:00N 43°21' E 004°24'2 3.9
2017-Sep-19 03:31N 43°22' E 004°22'3 3.9
2017-Sep-19 02:45N 43°23' E 004°18'1 3.9
2017-Sep-19 02:30N 43°23' E 004°16'7 0.5
2017-Sep-18 13:00N 43°16' E 004°19'2 3.8
2017-Sep-18 12:28N 43°15' E 004°21'13 3.1
2017-Sep-18 08:08N 43°10' E 004°38'1 3.9
2017-Sep-18 08:01N 43°10' E 004°38'2 3.8
2017-Sep-18 07:30N 43°11' E 004°40'2 3.9
2017-Sep-18 07:01N 43°13' E 004°42'2 3.9
2017-Sep-18 06:30N 43°14' E 004°42'19 4.6
2017-Sep-18 02:25N 43°24' E 004°20'411.0
2017-Sep-18 02:00N 43°26' E 004°14'  
Track history (hours):
 
Tides and Currents Weather Stations Pressure Air Temp Water Temp Dewpoint Dewpoint Depression Visibility Wind Speed Wind Dir Waves Ship Positions

F/V Barracuda II

Last reported at 2017-Sep-19 13:19 UTC. Time now 2017-Sep-19 22:34 UTC.
Position N 43°21' E 004°20'.

Length 18 m.

Type: Fishing. MMSI: 228236800.

Date/timePositionNaut miles runAvg speedWind from/ knotsBaromVisibWave heightAir tempDewpointWater temp
2017-Sep-19 13:19N 43°21' E 004°20'1 3.7
2017-Sep-19 13:00N 43°21' E 004°21'2 3.7
2017-Sep-19 12:30N 43°20' E 004°24'2 3.7
2017-Sep-19 12:01N 43°19' E 004°26'2 3.7
2017-Sep-19 11:31N 43°18' E 004°28'2 3.7
2017-Sep-19 11:00N 43°17' E 004°30'2 3.7
2017-Sep-19 10:31N 43°16' E 004°32'2 3.8
2017-Sep-19 10:00N 43°14' E 004°34'1 2.7
2017-Sep-19 09:30N 43°13' E 004°35'2 3.7
2017-Sep-19 09:01N 43°12' E 004°37'2 3.6
2017-Sep-19 08:31N 43°12' E 004°39'2 3.5
2017-Sep-19 08:01N 43°13' E 004°41'2 3.7
2017-Sep-19 07:30N 43°15' E 004°42'7 4.3
2017-Sep-19 05:58N 43°19' E 004°34'2 4.2
2017-Sep-19 05:30N 43°20' E 004°32'2 3.9
2017-Sep-19 05:00N 43°20' E 004°29'2 3.9
2017-Sep-19 04:28N 43°21' E 004°26'2 3.9
2017-Sep-19 04:00N 43°21' E 004°24'2 3.9
2017-Sep-19 03:31N 43°22' E 004°22'3 3.9
2017-Sep-19 02:45N 43°23' E 004°18'1 3.9
2017-Sep-19 02:30N 43°23' E 004°16'7 0.5
2017-Sep-18 13:00N 43°16' E 004°19'2 3.8
2017-Sep-18 12:28N 43°15' E 004°21'13 3.1
2017-Sep-18 08:08N 43°10' E 004°38'1 3.9
2017-Sep-18 08:01N 43°10' E 004°38'2 3.8
2017-Sep-18 07:30N 43°11' E 004°40'2 3.9
2017-Sep-18 07:01N 43°13' E 004°42'2 3.9
2017-Sep-18 06:30N 43°14' E 004°42'19 4.6
2017-Sep-18 02:25N 43°24' E 004°20'411.0
2017-Sep-18 02:00N 43°26' E 004°14'  

Dump ship's entire track history